Time;durP1;ratioP1;P1;durP2;ratioP2;P2;SDS_P1;SDS_P2;PMS_P1;PMS_P2;Temp;Humidity;BMP_temperature;BMP_pressure;BME280_temperature;BME280_humidity;BME280_pressure;Samples;Min_cycle;Max_cycle;Signal;HPM_P1;HPM_P2
2023/10/08 00:03:29;;;;;;;1.38;0.40;;;14.50;99.90;;;;;;4965671;28;20121;-55
2023/10/08 00:05:55;;;;;;;2.22;0.22;;;14.50;99.90;;;;;;5005612;28;20046;-57
2023/10/08 00:08:21;;;;;;;1.58;0.40;;;14.50;99.90;;;;;;4999130;28;20580;-58
2023/10/08 00:10:47;;;;;;;1.30;0.40;;;14.40;99.90;;;;;;5003924;28;20103;-59
2023/10/08 00:13:16;;;;;;;1.00;0.30;;;14.40;99.90;;;;;;4988839;28;20038;-57
2023/10/08 00:15:52;;;;;;;2.17;0.50;;;14.40;99.90;;;;;;4997125;28;20038;-57
2023/10/08 00:18:24;;;;;;;3.30;1.10;;;14.40;99.90;;;;;;4983882;28;20048;-56
2023/10/08 00:21:16;;;;;;;3.92;1.00;;;14.40;99.90;;;;;;5001600;28;20046;-56
2023/10/08 00:23:48;;;;;;;5.57;1.27;;;14.30;99.90;;;;;;4995663;28;20045;-56
2023/10/08 00:26:18;;;;;;;3.35;0.80;;;14.30;99.90;;;;;;4996260;28;20038;-57
2023/10/08 00:28:47;;;;;;;5.10;1.08;;;14.30;99.90;;;;;;4983807;28;20045;-58
2023/10/08 00:31:17;;;;;;;6.53;1.92;;;14.20;99.90;;;;;;4998544;28;20042;-53
2023/10/08 00:33:44;;;;;;;4.55;1.30;;;14.20;99.90;;;;;;5000520;28;20141;-57
2023/10/08 00:36:20;;;;;;;4.35;1.17;;;14.20;99.90;;;;;;4987726;28;20080;-55
2023/10/08 00:38:59;;;;;;;5.60;0.90;;;14.20;99.90;;;;;;5000049;28;20054;-55
2023/10/08 00:41:28;;;;;;;6.05;1.45;;;14.20;99.90;;;;;;5003282;28;20050;-56
2023/10/08 00:43:59;;;;;;;2.58;0.55;;;14.20;99.90;;;;;;4999711;28;20085;-55
2023/10/08 00:46:35;;;;;;;3.85;0.65;;;14.10;99.90;;;;;;5000979;28;20538;-54
2023/10/08 00:51:59;;;;;;;2.05;1.20;;;14.10;99.90;;;;;;5000397;28;20050;-54
2023/10/08 00:54:28;;;;;;;2.60;0.65;;;14.10;99.90;;;;;;5001317;28;20049;-58
2023/10/08 00:56:57;;;;;;;1.88;0.80;;;14.10;99.90;;;;;;5002474;28;20426;-57
2023/10/08 00:59:29;;;;;;;3.70;0.80;;;14.10;99.90;;;;;;5001971;28;20045;-56
2023/10/08 01:02:06;;;;;;;4.47;1.00;;;14.10;99.90;;;;;;5008557;28;20410;-56
2023/10/08 01:04:34;;;;;;;4.45;1.13;;;14.10;99.90;;;;;;5000676;28;20049;-57
2023/10/08 01:07:15;;;;;;;3.10;0.80;;;14.10;99.90;;;;;;5003660;28;20034;-57
2023/10/08 01:09:50;;;;;;;3.53;0.68;;;14.10;99.90;;;;;;5000557;28;20078;-56
2023/10/08 01:14:50;;;;;;;1.33;1.10;;;14.10;99.90;;;;;;5005894;28;20080;-58
2023/10/08 01:17:16;;;;;;;2.15;0.73;;;14.10;99.90;;;;;;4987566;28;20076;-59
2023/10/08 01:19:46;;;;;;;2.25;0.85;;;14.10;99.90;;;;;;4985670;28;20046;-57
2023/10/08 01:22:18;;;;;;;2.22;0.75;;;14.10;99.90;;;;;;5002041;28;20038;-58
2023/10/08 01:24:48;;;;;;;1.90;0.45;;;14.10;99.90;;;;;;5000414;28;20124;-59
2023/10/08 01:27:23;;;;;;;5.82;1.45;;;14.10;99.90;;;;;;4987330;28;20056;-58
2023/10/08 01:29:52;;;;;;;3.20;0.85;;;14.10;99.90;;;;;;4999284;28;20046;-58
2023/10/08 01:32:20;;;;;;;2.42;0.80;;;14.10;99.90;;;;;;5003949;28;20038;-58
2023/10/08 01:34:46;;;;;;;5.45;0.90;;;14.20;99.90;;;;;;4996719;28;20120;-57
2023/10/08 01:37:17;;;;;;;3.03;0.75;;;14.10;99.90;;;;;;4994823;28;20049;-57
2023/10/08 01:39:49;;;;;;;1.95;0.50;;;14.20;99.90;;;;;;4984661;28;20057;-58
2023/10/08 01:42:20;;;;;;;1.55;0.50;;;14.20;99.90;;;;;;5003977;28;20503;-57
2023/10/08 01:44:55;;;;;;;2.67;0.82;;;14.20;99.90;;;;;;5006131;28;20057;-58
2023/10/08 01:47:25;;;;;;;4.15;0.82;;;14.20;99.90;;;;;;4999666;28;20077;-56
2023/10/08 01:49:58;;;;;;;2.50;0.80;;;14.20;99.90;;;;;;5008250;28;20046;-56
2023/10/08 01:52:24;;;;;;;2.85;0.75;;;14.30;99.90;;;;;;4987234;28;20037;-57
2023/10/08 01:54:54;;;;;;;2.10;0.57;;;14.30;99.90;;;;;;5008751;28;20041;-57
2023/10/08 01:57:19;;;;;;;2.50;0.55;;;14.30;99.90;;;;;;5003322;28;20038;-57
2023/10/08 01:59:45;;;;;;;4.43;0.75;;;14.30;99.90;;;;;;5000535;23;20436;-55
2023/10/08 02:02:12;;;;;;;4.20;0.70;;;14.30;99.90;;;;;;4976993;28;20093;-57
2023/10/08 02:04:39;;;;;;;5.30;0.68;;;14.30;99.90;;;;;;4984349;28;20501;-56
2023/10/08 02:07:12;;;;;;;2.53;0.60;;;14.30;99.90;;;;;;4975838;28;20073;-59
2023/10/08 02:09:41;;;;;;;3.03;0.60;;;14.30;99.90;;;;;;4965495;28;20100;-58
2023/10/08 02:12:08;;;;;;;3.60;0.80;;;14.30;99.90;;;;;;4964560;28;20035;-56
2023/10/08 02:14:35;;;;;;;3.92;0.82;;;14.30;99.90;;;;;;4970290;28;20266;-58
2023/10/08 02:17:05;;;;;;;1.80;0.50;;;14.30;99.90;;;;;;4963208;28;20573;-57
2023/10/08 02:19:32;;;;;;;2.63;0.47;;;14.30;99.90;;;;;;4968268;28;20042;-58
2023/10/08 02:21:58;;;;;;;3.30;0.68;;;14.30;99.90;;;;;;4952842;28;20494;-57
2023/10/08 02:24:25;;;;;;;4.07;0.60;;;14.30;99.90;;;;;;4968791;28;20122;-58
2023/10/08 02:26:54;;;;;;;1.35;0.55;;;14.30;99.90;;;;;;4953593;28;20046;-56
2023/10/08 02:29:24;;;;;;;3.88;0.70;;;14.30;99.90;;;;;;4935414;28;20181;-57
2023/10/08 02:31:50;;;;;;;3.88;0.90;;;14.40;99.90;;;;;;4968074;28;20417;-56
2023/10/08 02:34:16;;;;;;;2.60;0.80;;;14.30;99.90;;;;;;4967904;28;20049;-55
2023/10/08 02:36:42;;;;;;;1.33;0.50;;;14.30;99.90;;;;;;4934949;28;20047;-57
2023/10/08 02:39:18;;;;;;;2.97;0.63;;;14.30;99.90;;;;;;4952309;28;20414;-57
2023/10/08 02:41:46;;;;;;;3.53;0.60;;;14.30;99.90;;;;;;4967787;28;20052;-58
2023/10/08 02:44:16;;;;;;;3.65;0.50;;;14.30;99.90;;;;;;4945599;28;20425;-56
2023/10/08 02:46:49;;;;;;;3.22;0.85;;;14.30;99.90;;;;;;4960761;28;20043;-57
2023/10/08 02:49:20;;;;;;;3.50;0.68;;;14.40;99.90;;;;;;4967212;28;20043;-57
2023/10/08 02:51:46;;;;;;;1.38;0.50;;;14.30;99.90;;;;;;4964535;28;20245;-58
2023/10/08 02:54:18;;;;;;;2.15;0.90;;;14.30;99.90;;;;;;4963630;28;20581;-58
2023/10/08 02:56:46;;;;;;;2.67;0.70;;;14.30;99.90;;;;;;4968327;28;20100;-56
2023/10/08 02:59:13;;;;;;;2.80;0.80;;;14.30;99.90;;;;;;4968457;28;20050;-58
2023/10/08 03:01:40;;;;;;;2.05;0.70;;;14.30;99.90;;;;;;4964050;28;20046;-59
2023/10/08 03:04:18;;;;;;;2.85;0.70;;;14.30;99.90;;;;;;4968189;28;20178;-58
2023/10/08 03:06:50;;;;;;;4.72;0.70;;;14.30;99.90;;;;;;4965976;28;20513;-57
2023/10/08 03:09:32;;;;;;;5.25;0.80;;;14.40;99.90;;;;;;4964499;28;20437;-56
2023/10/08 03:12:07;;;;;;;3.28;1.20;;;14.40;99.90;;;;;;4968230;28;20103;-56
2023/10/08 03:14:41;;;;;;;2.08;0.63;;;14.40;99.90;;;;;;4968372;28;20138;-56
2023/10/08 03:17:09;;;;;;;3.72;0.90;;;14.40;99.90;;;;;;4967593;28;20046;-58
2023/10/08 03:19:38;;;;;;;3.47;0.65;;;14.30;99.90;;;;;;4947212;28;20533;-57
2023/10/08 03:22:04;;;;;;;4.07;0.65;;;14.30;99.90;;;;;;4950532;28;20082;-57
2023/10/08 03:29:42;;;;;;;1.48;0.50;;;14.30;99.90;;;;;;4965299;28;20573;-56
2023/10/08 03:32:15;;;;;;;4.63;0.90;;;14.30;99.90;;;;;;4950411;28;20046;-59
2023/10/08 03:34:46;;;;;;;1.35;0.60;;;14.30;99.90;;;;;;4965738;28;20170;-56
2023/10/08 03:37:20;;;;;;;2.97;0.90;;;14.30;99.90;;;;;;4966807;28;20038;-57
2023/10/08 03:40:00;;;;;;;3.78;0.93;;;14.30;99.90;;;;;;4967604;28;20047;-57
2023/10/08 03:42:33;;;;;;;2.75;1.13;;;14.30;99.90;;;;;;4967196;28;20046;-56
2023/10/08 03:45:09;;;;;;;2.88;0.90;;;14.30;99.90;;;;;;4962906;28;20462;-55
2023/10/08 03:47:38;;;;;;;2.45;0.88;;;14.30;99.90;;;;;;4966499;28;20035;-57
2023/10/08 03:50:16;;;;;;;3.17;0.90;;;14.30;99.90;;;;;;4963968;28;20058;-57
2023/10/08 03:52:43;;;;;;;3.75;0.85;;;14.30;99.90;;;;;;4969669;28;20117;-58
2023/10/08 03:57:44;;;;;;;6.22;0.98;;;14.30;99.90;;;;;;4969060;28;20086;-58
2023/10/08 04:00:17;;;;;;;6.13;0.90;;;14.30;99.90;;;;;;4966734;28;20038;-59
2023/10/08 04:02:54;;;;;;;5.20;1.20;;;14.30;99.90;;;;;;4963985;28;20043;-57
2023/10/08 04:05:23;;;;;;;6.88;1.27;;;14.20;99.90;;;;;;4950739;28;20082;-55
2023/10/08 04:13:08;;;;;;;5.20;1.00;;;14.20;99.90;;;;;;4967750;28;20548;-58
2023/10/08 04:15:40;;;;;;;2.92;1.20;;;14.20;99.90;;;;;;4966569;28;20027;-58
2023/10/08 04:18:15;;;;;;;4.45;1.25;;;14.20;99.90;;;;;;4969095;28;20054;-54
2023/10/08 04:20:59;;;;;;;4.50;1.02;;;14.20;99.90;;;;;;4964721;28;20039;-59
2023/10/08 04:23:24;;;;;;;5.18;1.20;;;14.20;99.90;;;;;;4967204;28;20126;-57
2023/10/08 04:25:54;;;;;;;4.90;1.00;;;14.20;99.90;;;;;;4947372;28;20126;-57
2023/10/08 04:28:20;;;;;;;7.03;1.02;;;14.20;99.90;;;;;;4962435;28;20047;-57
2023/10/08 04:30:53;;;;;;;6.25;1.42;;;14.20;99.90;;;;;;4950161;28;20506;-56
2023/10/08 04:33:19;;;;;;;6.28;1.35;;;14.20;99.90;;;;;;4968832;28;20129;-55
2023/10/08 04:35:51;;;;;;;5.68;1.15;;;14.20;99.90;;;;;;4948858;28;20498;-58
2023/10/08 04:38:21;;;;;;;9.32;1.40;;;14.20;99.90;;;;;;4967791;28;20055;-58
2023/10/08 04:40:48;;;;;;;6.07;1.30;;;14.20;99.90;;;;;;4965785;28;20058;-55
2023/10/08 04:43:22;;;;;;;9.77;1.52;;;14.20;99.90;;;;;;4946995;28;20138;-57
2023/10/08 04:45:49;;;;;;;5.40;1.65;;;14.20;99.90;;;;;;4964410;28;20429;-58
2023/10/08 04:48:20;;;;;;;7.22;2.10;;;14.20;99.90;;;;;;4966338;28;20042;-56
2023/10/08 04:51:01;;;;;;;9.43;1.48;;;14.20;99.90;;;;;;4965040;28;20050;-58
2023/10/08 04:53:35;;;;;;;7.28;1.33;;;14.20;99.90;;;;;;4946881;28;20122;-59
2023/10/08 04:56:05;;;;;;;9.10;1.60;;;14.20;99.90;;;;;;4958939;28;20528;-57
2023/10/08 04:58:36;;;;;;;3.60;1.13;;;14.20;99.90;;;;;;4978347;28;20165;-58
2023/10/08 05:17:22;;;;;;;8.20;1.58;;;14.20;99.90;;;;;;4967174;28;20046;-59
2023/10/08 05:33:12;;;;;;;5.97;1.73;;;14.10;99.90;;;;;;4966238;28;20046;-58
2023/10/08 05:38:23;;;;;;;6.53;1.40;;;14.10;99.90;;;;;;4966072;28;20146;-58
2023/10/08 06:13:06;;;;;;;7.60;1.55;;;13.90;99.90;;;;;;4968489;28;20121;-57
2023/10/08 06:18:28;;;;;;;15.57;2.17;;;14.00;99.90;;;;;;4967834;28;20047;-56
2023/10/08 06:21:03;;;;;;;7.85;1.98;;;14.00;99.90;;;;;;4965336;28;20057;-57
2023/10/08 06:23:35;;;;;;;8.23;2.10;;;14.00;99.90;;;;;;4968871;28;20444;-57
2023/10/08 06:28:38;;;;;;;5.07;1.70;;;14.00;99.90;;;;;;4964143;28;20058;-58
2023/10/08 06:31:11;;;;;;;8.93;2.05;;;14.00;99.90;;;;;;4945412;28;20534;-54
2023/10/08 06:33:38;;;;;;;6.53;1.63;;;14.00;99.90;;;;;;4945825;28;20125;-55
2023/10/08 06:38:32;;;;;;;3.95;1.20;;;14.10;99.90;;;;;;4961391;28;20082;-58
2023/10/08 06:41:09;;;;;;;7.22;1.92;;;14.10;99.90;;;;;;4962265;28;20054;-58
2023/10/08 06:43:37;;;;;;;5.18;1.63;;;14.10;99.90;;;;;;4963918;28;20126;-57
2023/10/08 06:46:07;;;;;;;5.25;1.52;;;14.10;99.90;;;;;;4960521;28;20601;-58
2023/10/08 06:48:34;;;;;;;10.10;2.20;;;14.20;99.90;;;;;;4953332;28;20042;-59
2023/10/08 06:51:13;;;;;;;10.88;2.10;;;14.20;99.90;;;;;;4954393;28;20042;-58
2023/10/08 06:53:44;;;;;;;7.00;1.65;;;14.20;99.90;;;;;;4956216;28;20054;-59
2023/10/08 06:56:15;;;;;;;6.25;1.55;;;14.20;99.90;;;;;;4959354;28;20039;-58
2023/10/08 06:58:48;;;;;;;7.10;1.60;;;14.10;99.90;;;;;;4959445;28;20521;-56
2023/10/08 07:01:20;;;;;;;4.53;1.88;;;14.10;99.90;;;;;;4963821;28;20058;-53
2023/10/08 07:03:49;;;;;;;4.78;1.58;;;14.10;99.90;;;;;;4940373;28;20047;-56
2023/10/08 07:06:25;;;;;;;7.20;2.42;;;14.10;99.90;;;;;;4959721;28;20039;-56
2023/10/08 07:08:55;;;;;;;5.97;1.65;;;14.00;99.90;;;;;;4961486;28;20113;-56
2023/10/08 07:11:22;;;;;;;6.97;1.77;;;14.10;99.90;;;;;;4946140;28;20134;-56
2023/10/08 07:13:48;;;;;;;6.68;1.65;;;14.10;99.90;;;;;;4960494;28;20098;-57
2023/10/08 07:16:17;;;;;;;8.32;2.25;;;14.20;99.90;;;;;;4944650;28;20086;-59
2023/10/08 07:18:55;;;;;;;6.65;2.08;;;14.20;99.90;;;;;;4961627;28;20045;-57
2023/10/08 07:21:28;;;;;;;5.97;1.65;;;14.30;99.90;;;;;;4960290;28;20071;-56
2023/10/08 07:23:56;;;;;;;6.38;1.40;;;14.20;99.90;;;;;;4961973;28;20521;-58
2023/10/08 07:26:25;;;;;;;7.97;1.38;;;14.20;99.90;;;;;;4946738;28;20133;-57
2023/10/08 07:28:52;;;;;;;7.40;1.73;;;14.30;99.90;;;;;;4966022;28;20042;-57
2023/10/08 07:31:28;;;;;;;12.68;3.17;;;14.20;99.90;;;;;;4957306;28;20050;-58
2023/10/08 07:33:56;;;;;;;7.75;1.67;;;14.20;99.90;;;;;;4963266;28;20039;-57
2023/10/08 07:36:26;;;;;;;9.75;1.58;;;14.20;99.90;;;;;;4966883;28;20043;-58
2023/10/08 07:38:53;;;;;;;4.47;1.52;;;14.20;99.90;;;;;;4960614;28;20053;-58
2023/10/08 07:41:20;;;;;;;8.50;1.65;;;14.30;99.90;;;;;;4964915;28;20401;-58
2023/10/08 07:43:55;;;;;;;4.75;1.40;;;14.30;99.90;;;;;;4947579;28;20140;-57
2023/10/08 07:46:22;;;;;;;8.73;1.92;;;14.30;99.90;;;;;;4964137;28;20046;-57
2023/10/08 07:48:50;;;;;;;7.80;1.83;;;14.20;99.90;;;;;;4962721;28;20478;-57
2023/10/08 07:51:17;;;;;;;6.82;1.60;;;14.20;99.90;;;;;;4962720;28;20047;-57
2023/10/08 07:53:43;;;;;;;8.73;1.92;;;14.30;99.90;;;;;;4948825;28;20105;-58
2023/10/08 07:56:10;;;;;;;8.20;2.00;;;14.40;99.90;;;;;;4960052;28;20510;-59
2023/10/08 07:58:37;;;;;;;10.43;1.70;;;14.40;99.90;;;;;;4961992;28;20078;-58
2023/10/08 08:01:06;;;;;;;4.90;1.83;;;14.40;99.90;;;;;;4958958;28;20084;-57
2023/10/08 08:03:39;;;;;;;7.40;1.92;;;14.40;99.90;;;;;;4952904;28;20057;-58
2023/10/08 08:06:09;;;;;;;8.30;2.03;;;14.40;99.90;;;;;;4963925;28;20047;-57
2023/10/08 08:08:36;;;;;;;5.55;1.85;;;14.40;99.90;;;;;;4962283;28;20058;-55
2023/10/08 08:11:13;;;;;;;7.07;1.70;;;14.50;99.90;;;;;;4965268;28;22742;-58
2023/10/08 08:13:42;;;;;;;7.97;1.75;;;14.50;99.90;;;;;;4957783;28;20085;-57
2023/10/08 08:16:18;;;;;;;9.88;1.95;;;14.50;99.90;;;;;;4964948;28;20049;-58
2023/10/08 08:18:52;;;;;;;7.75;1.80;;;14.50;99.90;;;;;;4963786;28;20028;-57
2023/10/08 08:21:19;;;;;;;12.23;2.42;;;14.60;99.90;;;;;;4966152;28;20639;-55
2023/10/08 08:23:49;;;;;;;12.07;2.20;;;14.60;99.90;;;;;;4966108;28;20039;-57
2023/10/08 08:26:39;;;;;;;9.43;1.95;;;14.70;99.90;;;;;;4941798;28;20129;-56
2023/10/08 08:29:08;;;;;;;8.85;2.13;;;14.80;99.90;;;;;;4955448;28;20042;-58
2023/10/08 08:31:35;;;;;;;12.02;1.83;;;14.80;99.90;;;;;;4964985;28;20069;-58
2023/10/08 08:34:13;;;;;;;6.15;2.25;;;14.90;99.90;;;;;;4961310;28;20045;-57
2023/10/08 08:36:45;;;;;;;7.75;1.67;;;14.90;99.90;;;;;;4951256;28;20377;-57
2023/10/08 08:39:11;;;;;;;7.85;2.00;;;14.90;99.90;;;;;;4966893;28;20043;-58
2023/10/08 08:41:40;;;;;;;9.20;2.22;;;15.00;99.90;;;;;;4950805;28;20069;-58
2023/10/08 08:44:06;;;;;;;9.43;2.03;;;15.10;99.90;;;;;;4961025;28;20350;-58
2023/10/08 08:46:35;;;;;;;12.07;2.28;;;15.20;99.90;;;;;;4967376;28;20035;-58
2023/10/08 08:49:07;;;;;;;10.07;1.98;;;15.30;99.90;;;;;;4950632;28;20043;-58
2023/10/08 08:51:35;;;;;;;8.88;2.08;;;15.40;99.90;;;;;;4965786;28;20514;-58
2023/10/08 08:54:07;;;;;;;6.65;2.22;;;15.40;99.90;;;;;;4980213;28;20536;-58
2023/10/08 08:56:36;;;;;;;7.22;1.80;;;15.60;99.90;;;;;;4962596;28;20430;-58
2023/10/08 08:59:04;;;;;;;8.20;1.90;;;15.60;99.90;;;;;;4980386;28;20410;-58
2023/10/08 09:01:32;;;;;;;9.05;1.75;;;15.60;99.90;;;;;;4951087;28;20042;-57
2023/10/08 09:04:05;;;;;;;6.63;1.50;;;15.60;99.90;;;;;;4964281;28;20593;-54
2023/10/08 09:06:33;;;;;;;7.78;2.10;;;15.80;99.90;;;;;;4964135;28;20087;-57
2023/10/08 09:09:14;;;;;;;8.57;1.77;;;15.90;99.90;;;;;;4958366;28;20054;-58
2023/10/08 09:11:43;;;;;;;4.30;1.40;;;16.10;99.90;;;;;;4965710;28;20051;-58
2023/10/08 09:14:10;;;;;;;9.57;1.65;;;16.10;99.90;;;;;;4950007;28;20082;-56
2023/10/08 09:16:37;;;;;;;7.60;1.92;;;16.20;99.90;;;;;;4949436;28;20053;-58
2023/10/08 09:19:04;;;;;;;9.85;1.83;;;16.20;99.90;;;;;;4966521;28;20062;-57
2023/10/08 09:21:30;;;;;;;7.78;1.80;;;16.10;99.90;;;;;;4947383;28;20094;-58
2023/10/08 09:23:56;;;;;;;6.55;1.40;;;16.10;99.90;;;;;;4967100;28;20046;-57
2023/10/08 09:26:28;;;;;;;7.07;1.25;;;16.10;99.90;;;;;;4950299;28;20509;-58
2023/10/08 09:28:55;;;;;;;7.85;1.95;;;16.10;99.90;;;;;;4947459;28;20054;-58
2023/10/08 09:31:23;;;;;;;8.45;2.20;;;16.20;99.90;;;;;;4966405;28;20070;-57
2023/10/08 09:33:56;;;;;;;5.32;1.25;;;16.20;99.90;;;;;;4946111;28;20478;-58
2023/10/08 09:36:31;;;;;;;7.60;1.85;;;16.30;99.90;;;;;;4962243;28;20088;-57
2023/10/08 09:39:01;;;;;;;6.43;1.52;;;16.20;99.90;;;;;;4949579;28;20089;-57
2023/10/08 09:41:30;;;;;;;12.05;2.42;;;16.30;99.90;;;;;;4969711;28;20061;-54
2023/10/08 09:43:58;;;;;;;6.85;1.45;;;16.20;99.90;;;;;;4963680;28;20050;-57
2023/10/08 09:46:31;;;;;;;5.70;1.42;;;16.20;99.90;;;;;;4964608;28;20617;-58
2023/10/08 09:49:01;;;;;;;4.72;1.33;;;16.20;99.90;;;;;;4962418;28;20042;-56
2023/10/08 09:51:31;;;;;;;8.35;1.95;;;16.20;99.90;;;;;;4962290;28;20106;-57
2023/10/08 09:54:00;;;;;;;5.45;1.67;;;16.30;99.90;;;;;;4967916;28;20046;-58
2023/10/08 09:56:31;;;;;;;6.10;1.55;;;16.50;99.90;;;;;;4945973;28;20035;-57
2023/10/08 09:58:59;;;;;;;8.18;1.95;;;16.70;99.90;;;;;;4964277;28;20047;-56
2023/10/08 10:01:26;;;;;;;6.20;1.48;;;16.70;99.90;;;;;;4946164;28;20490;-58
2023/10/08 10:03:52;;;;;;;7.22;1.65;;;16.60;99.90;;;;;;4966512;28;20042;-57
2023/10/08 10:06:18;;;;;;;8.70;2.03;;;16.60;99.90;;;;;;4965531;28;20055;-56
2023/10/08 10:08:47;;;;;;;6.90;1.80;;;16.60;99.90;;;;;;4963148;28;20518;-57
2023/10/08 10:11:13;;;;;;;8.80;1.50;;;16.70;99.90;;;;;;4964425;28;20065;-59
2023/10/08 10:13:48;;;;;;;8.57;1.55;;;16.80;99.90;;;;;;4966953;28;20532;-54
2023/10/08 10:16:18;;;;;;;7.03;1.50;;;16.90;99.90;;;;;;4965284;28;20046;-57
2023/10/08 10:18:47;;;;;;;10.48;2.10;;;17.00;99.90;;;;;;4963216;28;20043;-55
2023/10/08 10:21:13;;;;;;;4.82;1.45;;;17.00;99.90;;;;;;4966438;28;20047;-56
2023/10/08 10:23:43;;;;;;;10.38;2.08;;;17.00;99.90;;;;;;4966770;28;20650;-58
2023/10/08 10:26:24;;;;;;;8.30;2.00;;;16.90;99.90;;;;;;4965841;28;20121;-57
2023/10/08 10:29:14;;;;;;;12.63;2.30;;;16.90;99.90;;;;;;4965797;28;20325;-55
2023/10/08 10:31:50;;;;;;;5.35;1.40;;;16.90;99.90;;;;;;4964657;28;20043;-58
2023/10/08 10:34:18;;;;;;;6.13;2.00;;;16.90;99.90;;;;;;4963531;28;20077;-57
2023/10/08 10:36:55;;;;;;;8.00;1.75;;;16.90;99.90;;;;;;4963291;28;20046;-58
2023/10/08 10:39:28;;;;;;;7.35;2.15;;;17.00;99.90;;;;;;4967287;28;20371;-58
2023/10/08 10:42:04;;;;;;;8.25;2.20;;;17.20;99.90;;;;;;4970400;28;20051;-55
2023/10/08 10:44:30;;;;;;;7.60;1.80;;;17.30;99.90;;;;;;4968238;28;20584;-56
2023/10/08 10:47:42;;;;;;;10.68;2.60;;;17.50;99.90;;;;;;4969293;28;20316;-57
2023/10/08 10:49:52;;;;;;;10.52;2.20;;;17.60;99.90;;;;;;4961283;28;20450;-56
2023/10/08 10:57:41;;;;;;;7.97;1.88;;;17.50;99.90;;;;;;4969224;28;20060;-57
2023/10/08 11:03:16;;;;;;;4.50;1.48;;;17.70;99.90;;;;;;4912972;29;20299;-56
2023/10/08 11:05:51;;;;;;;7.70;2.00;;;17.70;99.90;;;;;;4912850;29;20098;-58
2023/10/08 11:08:18;;;;;;;7.90;2.05;;;17.60;99.90;;;;;;4934517;28;20454;-57
2023/10/08 11:10:51;;;;;;;4.53;1.20;;;17.50;99.90;;;;;;4969048;28;20062;-57
2023/10/08 11:13:21;;;;;;;;;;;17.40;99.90;;;;;;4970236;28;20240;-61
2023/10/08 11:15:53;;;;;;;9.80;1.60;;;17.30;99.90;;;;;;4962391;28;20409;-57
2023/10/08 11:18:21;;;;;;;8.30;2.13;;;17.30;99.90;;;;;;4966480;28;20072;-56
2023/10/08 11:21:01;;;;;;;8.23;1.83;;;17.30;99.90;;;;;;4952783;28;20086;-58
2023/10/08 11:23:35;;;;;;;9.63;2.35;;;17.40;99.90;;;;;;4969278;28;20043;-58
2023/10/08 11:26:03;;;;;;;6.72;2.10;;;17.50;99.90;;;;;;4949067;28;20050;-56
2023/10/08 11:28:34;;;;;;;6.00;1.50;;;17.50;99.90;;;;;;4953003;28;20043;-58
2023/10/08 11:31:08;;;;;;;9.30;2.28;;;17.60;99.90;;;;;;4965707;28;20919;-58
2023/10/08 11:33:41;;;;;;;9.77;2.15;;;17.70;99.90;;;;;;4968209;28;20490;-61
2023/10/08 11:36:18;;;;;;;7.10;1.92;;;17.80;99.90;;;;;;4955300;28;20043;-58
2023/10/08 11:38:53;;;;;;;6.75;2.03;;;18.00;99.90;;;;;;4967512;28;20118;-58
2023/10/08 11:41:27;;;;;;;10.25;1.70;;;18.10;99.90;;;;;;4949325;28;20054;-60
2023/10/08 11:43:56;;;;;;;7.97;2.03;;;18.10;99.90;;;;;;4968472;28;20045;-58
2023/10/08 11:46:26;;;;;;;8.05;2.38;;;18.10;99.90;;;;;;4968423;28;20038;-58
2023/10/08 11:48:52;;;;;;;7.75;1.80;;;18.10;99.90;;;;;;4968015;28;20046;-58
2023/10/08 11:51:18;;;;;;;6.97;1.70;;;18.10;99.90;;;;;;4951930;28;20055;-58
2023/10/08 11:53:44;;;;;;;9.55;1.70;;;18.10;99.90;;;;;;4969003;28;20047;-60
2023/10/08 11:56:13;;;;;;;9.20;2.20;;;18.00;99.90;;;;;;4966323;28;20039;-58
2023/10/08 11:58:44;;;;;;;7.20;1.90;;;17.90;99.90;;;;;;4966487;28;20106;-57
2023/10/08 12:01:17;;;;;;;6.72;1.67;;;17.80;99.90;;;;;;4966931;28;20050;-58
2023/10/08 12:03:49;;;;;;;6.90;2.10;;;17.90;99.90;;;;;;4967653;28;20058;-58
2023/10/08 12:06:18;;;;;;;11.80;1.95;;;17.80;99.90;;;;;;4966894;28;20101;-59
2023/10/08 12:08:46;;;;;;;7.80;2.00;;;17.80;99.90;;;;;;4961263;28;20039;-58
2023/10/08 12:11:15;;;;;;;5.45;2.00;;;17.70;99.90;;;;;;4970081;28;20050;-58
2023/10/08 12:13:44;;;;;;;7.40;1.70;;;17.60;99.90;;;;;;4967666;28;20042;-58
2023/10/08 12:16:22;;;;;;;9.43;1.98;;;17.60;99.90;;;;;;4966977;28;20088;-57
2023/10/08 12:18:53;;;;;;;5.68;1.85;;;17.80;99.90;;;;;;4976368;28;20043;-60
2023/10/08 12:21:19;;;;;;;7.45;1.77;;;17.90;99.90;;;;;;4964414;28;20050;-55
2023/10/08 12:23:46;;;;;;;5.88;1.52;;;17.90;99.90;;;;;;4947769;28;20098;-56
2023/10/08 12:26:16;;;;;;;8.50;1.60;;;18.00;99.90;;;;;;4950870;28;20046;-57
2023/10/08 12:28:44;;;;;;;5.55;1.63;;;18.20;99.90;;;;;;4966445;28;20086;-60
2023/10/08 12:31:23;;;;;;;10.55;2.30;;;18.40;99.90;;;;;;4967342;28;20499;-56
2023/10/08 12:34:00;;;;;;;9.25;1.75;;;18.50;99.90;;;;;;4966383;28;20101;-58
2023/10/08 12:36:33;;;;;;;6.13;1.80;;;18.50;99.90;;;;;;4962535;28;20043;-58
2023/10/08 12:38:59;;;;;;;8.23;1.60;;;18.70;99.90;;;;;;4965360;28;20054;-58
2023/10/08 12:41:26;;;;;;;7.90;1.75;;;18.90;99.90;;;;;;4968003;28;20422;-57
2023/10/08 12:43:53;;;;;;;9.65;1.85;;;18.90;99.90;;;;;;4966880;28;20112;-57
2023/10/08 12:46:23;;;;;;;10.65;1.73;;;18.90;99.90;;;;;;4967404;28;20054;-57
2023/10/08 12:48:54;;;;;;;8.60;1.65;;;18.90;99.90;;;;;;4968126;28;20051;-57
2023/10/08 12:51:25;;;;;;;7.13;1.83;;;18.80;99.70;;;;;;4951274;28;20101;-57
2023/10/08 12:53:58;;;;;;;7.20;1.85;;;18.60;99.60;;;;;;4965703;28;20501;-58
2023/10/08 12:56:32;;;;;;;7.72;2.40;;;18.50;99.90;;;;;;4948535;28;20101;-57
2023/10/08 12:58:58;;;;;;;11.60;1.85;;;18.50;99.90;;;;;;4967240;28;20066;-58
2023/10/08 13:01:28;;;;;;;6.78;1.73;;;18.60;99.90;;;;;;4966872;28;20458;-60
2023/10/08 13:03:59;;;;;;;6.82;1.98;;;18.50;99.90;;;;;;4949811;28;20082;-58
2023/10/08 13:06:29;;;;;;;6.85;1.75;;;18.50;99.90;;;;;;4966026;28;20046;-55
2023/10/08 13:08:59;;;;;;;10.90;2.53;;;18.40;99.90;;;;;;4961556;28;20045;-58
2023/10/08 13:11:29;;;;;;;5.93;1.55;;;18.30;99.90;;;;;;4948674;28;20038;-60
2023/10/08 13:13:58;;;;;;;7.60;2.45;;;18.30;99.90;;;;;;4966566;28;20079;-58
2023/10/08 13:16:26;;;;;;;8.13;1.98;;;18.20;99.90;;;;;;4967969;28;20118;-57
2023/10/08 13:18:52;;;;;;;9.25;3.05;;;18.10;99.90;;;;;;4965235;28;20344;-56
2023/10/08 13:21:24;;;;;;;8.98;1.67;;;17.90;99.90;;;;;;4969021;28;20050;-57
2023/10/08 13:23:53;;;;;;;3.95;1.73;;;17.70;99.90;;;;;;4967011;28;20129;-60
2023/10/08 13:26:22;;;;;;;5.78;1.92;;;17.60;99.90;;;;;;4947705;28;20051;-56
2023/10/08 13:28:48;;;;;;;6.15;1.20;;;17.60;99.90;;;;;;4979612;28;20050;-55
2023/10/08 13:31:16;;;;;;;6.25;1.85;;;17.60;99.90;;;;;;4966755;28;20058;-56
2023/10/08 13:33:44;;;;;;;6.82;1.55;;;17.60;99.90;;;;;;4966779;28;20035;-58
2023/10/08 13:36:11;;;;;;;10.65;2.13;;;17.60;99.90;;;;;;4966492;28;20046;-57
2023/10/08 13:38:40;;;;;;;6.28;2.08;;;17.60;99.90;;;;;;4966446;28;20043;-59
2023/10/08 13:41:16;;;;;;;6.38;1.92;;;17.70;99.90;;;;;;4966057;28;20080;-56
2023/10/08 13:43:51;;;;;;;7.25;1.92;;;17.70;99.90;;;;;;4964984;28;20462;-56
2023/10/08 13:46:22;;;;;;;10.32;1.45;;;17.70;99.90;;;;;;4966394;28;20055;-59
2023/10/08 13:48:49;;;;;;;6.45;1.33;;;17.60;99.90;;;;;;4953511;28;20075;-58
2023/10/08 13:51:25;;;;;;;9.32;1.95;;;17.60;99.90;;;;;;4966301;28;20043;-56
2023/10/08 13:53:53;;;;;;;8.43;1.73;;;17.60;99.90;;;;;;4965172;28;20144;-55
2023/10/08 13:56:24;;;;;;;6.70;2.55;;;17.60;99.90;;;;;;4949559;28;20046;-54
2023/10/08 13:58:55;;;;;;;12.32;2.58;;;17.60;99.90;;;;;;4966230;28;20078;-58
2023/10/08 14:01:21;;;;;;;6.10;1.30;;;17.60;99.90;;;;;;4962396;28;20053;-56
2023/10/08 14:03:56;;;;;;;8.43;1.63;;;17.60;99.90;;;;;;4950980;28;20050;-56
2023/10/08 14:06:22;;;;;;;8.90;2.15;;;17.70;99.90;;;;;;4966037;28;20495;-54
2023/10/08 14:08:51;;;;;;;5.68;1.85;;;17.70;99.90;;;;;;4964340;28;20042;-56
2023/10/08 14:11:19;;;;;;;8.98;2.40;;;17.70;99.90;;;;;;4950419;28;20047;-59
2023/10/08 14:13:47;;;;;;;5.80;1.65;;;17.70;99.90;;;;;;4951736;28;20413;-54
2023/10/08 14:16:15;;;;;;;5.57;1.92;;;17.60;99.90;;;;;;4952530;28;20045;-58
2023/10/08 14:18:41;;;;;;;6.85;1.67;;;17.60;99.90;;;;;;4968831;28;20109;-58
2023/10/08 14:21:10;;;;;;;9.38;2.20;;;17.60;99.90;;;;;;4971696;28;20530;-55
2023/10/08 14:23:39;;;;;;;4.00;1.50;;;17.60;99.90;;;;;;4970949;28;20042;-58
2023/10/08 14:26:09;;;;;;;4.40;1.65;;;17.50;99.90;;;;;;4968862;28;20090;-58
2023/10/08 14:28:52;;;;;;;7.30;1.63;;;17.50;99.90;;;;;;4951039;28;20160;-57
2023/10/08 14:31:22;;;;;;;5.47;1.52;;;17.30;99.90;;;;;;4968270;28;20109;-55
2023/10/08 14:42:54;;;;;;;6.78;1.77;;;17.20;99.90;;;;;;4950981;28;20174;-57
2023/10/08 14:45:10;;;;;;;5.15;1.40;;;17.10;99.90;;;;;;4969325;28;20051;-58
2023/10/08 14:47:39;;;;;;;5.25;1.50;;;17.10;99.90;;;;;;4966323;28;20050;-57
2023/10/08 14:50:05;;;;;;;7.13;1.60;;;17.20;99.90;;;;;;4951870;28;20051;-59
2023/10/08 14:52:33;;;;;;;6.72;1.73;;;17.20;99.90;;;;;;4953722;28;20101;-60